sensor_id;sensor_type;location;lat;lon;timestamp;temperature;humidity
12847;DHT22;6492;48.128;8.320;2023-02-21T00:00:38;2.90;1.70
12847;DHT22;6492;48.128;8.320;2023-02-21T00:04:57;3.10;1.40
12847;DHT22;6492;48.128;8.320;2023-02-21T00:09:16;3.20;1.00
12847;DHT22;6492;48.128;8.320;2023-02-21T00:13:37;3.30;1.00
12847;DHT22;6492;48.128;8.320;2023-02-21T00:17:56;3.40;1.00
12847;DHT22;6492;48.128;8.320;2023-02-21T00:22:15;3.40;1.00
12847;DHT22;6492;48.128;8.320;2023-02-21T00:26:35;3.50;1.00
12847;DHT22;6492;48.128;8.320;2023-02-21T00:30:55;3.60;1.00
12847;DHT22;6492;48.128;8.320;2023-02-21T00:35:14;3.70;1.00
12847;DHT22;6492;48.128;8.320;2023-02-21T00:39:34;3.70;1.00
12847;DHT22;6492;48.128;8.320;2023-02-21T00:43:53;3.80;1.00
12847;DHT22;6492;48.128;8.320;2023-02-21T00:48:18;3.80;1.00
12847;DHT22;6492;48.128;8.320;2023-02-21T00:52:47;3.70;1.00
12847;DHT22;6492;48.128;8.320;2023-02-21T00:57:06;3.60;1.00
12847;DHT22;6492;48.128;8.320;2023-02-21T01:01:25;3.50;1.00
12847;DHT22;6492;48.128;8.320;2023-02-21T01:05:45;3.40;1.00
12847;DHT22;6492;48.128;8.320;2023-02-21T01:10:05;3.30;1.00
12847;DHT22;6492;48.128;8.320;2023-02-21T01:14:24;3.40;1.00
12847;DHT22;6492;48.128;8.320;2023-02-21T01:18:43;3.40;1.00
12847;DHT22;6492;48.128;8.320;2023-02-21T01:23:03;3.30;1.00
12847;DHT22;6492;48.128;8.320;2023-02-21T01:27:23;3.10;1.00
12847;DHT22;6492;48.128;8.320;2023-02-21T01:31:42;3.10;1.00
12847;DHT22;6492;48.128;8.320;2023-02-21T01:36:03;3.00;1.00
12847;DHT22;6492;48.128;8.320;2023-02-21T01:40:25;2.90;1.70
12847;DHT22;6492;48.128;8.320;2023-02-21T01:44:46;3.00;3.70
12847;DHT22;6492;48.128;8.320;2023-02-21T01:49:08;3.00;4.90
12847;DHT22;6492;48.128;8.320;2023-02-21T01:53:32;3.00;5.30
12847;DHT22;6492;48.128;8.320;2023-02-21T01:57:53;3.00;5.50
12847;DHT22;6492;48.128;8.320;2023-02-21T02:02:17;2.90;5.50
12847;DHT22;6492;48.128;8.320;2023-02-21T02:06:36;2.90;6.40
12847;DHT22;6492;48.128;8.320;2023-02-21T02:11:02;2.80;6.10
12847;DHT22;6492;48.128;8.320;2023-02-21T02:15:32;2.60;6.00
12847;DHT22;6492;48.128;8.320;2023-02-21T02:24:34;2.60;7.30
12847;DHT22;6492;48.128;8.320;2023-02-21T02:28:53;2.60;6.40
12847;DHT22;6492;48.128;8.320;2023-02-21T02:33:33;2.50;7.20
12847;DHT22;6492;48.128;8.320;2023-02-21T02:37:46;2.50;8.40
12847;DHT22;6492;48.128;8.320;2023-02-21T02:41:57;2.30;9.00
12847;DHT22;6492;48.128;8.320;2023-02-21T02:46:06;2.20;9.30
12847;DHT22;6492;48.128;8.320;2023-02-21T02:50:09;2.20;10.60
12847;DHT22;6492;48.128;8.320;2023-02-21T02:54:13;2.30;10.90
12847;DHT22;6492;48.128;8.320;2023-02-21T02:58:16;2.40;11.00
12847;DHT22;6492;48.128;8.320;2023-02-21T03:02:36;2.50;12.10
12847;DHT22;6492;48.128;8.320;2023-02-21T03:06:48;2.60;12.00
12847;DHT22;6492;48.128;8.320;2023-02-21T03:11:00;2.60;13.50
12847;DHT22;6492;48.128;8.320;2023-02-21T03:15:06;2.60;14.10
12847;DHT22;6492;48.128;8.320;2023-02-21T03:19:11;2.60;14.90
12847;DHT22;6492;48.128;8.320;2023-02-21T03:23:15;2.50;14.70
12847;DHT22;6492;48.128;8.320;2023-02-21T03:27:21;2.40;15.10
12847;DHT22;6492;48.128;8.320;2023-02-21T03:31:27;2.40;15.80
12847;DHT22;6492;48.128;8.320;2023-02-21T03:35:30;2.30;16.10
12847;DHT22;6492;48.128;8.320;2023-02-21T03:40:00;2.30;16.10
12847;DHT22;6492;48.128;8.320;2023-02-21T03:44:03;2.20;16.00
12847;DHT22;6492;48.128;8.320;2023-02-21T03:48:05;2.00;16.90
12847;DHT22;6492;48.128;8.320;2023-02-21T03:52:06;1.90;17.20
12847;DHT22;6492;48.128;8.320;2023-02-21T03:56:12;1.80;17.30
12847;DHT22;6492;48.128;8.320;2023-02-21T04:00:15;1.70;17.30
12847;DHT22;6492;48.128;8.320;2023-02-21T04:04:17;1.60;17.60
12847;DHT22;6492;48.128;8.320;2023-02-21T04:08:19;1.40;18.30
12847;DHT22;6492;48.128;8.320;2023-02-21T04:12:21;1.20;18.60
12847;DHT22;6492;48.128;8.320;2023-02-21T04:16:24;1.00;20.40
12847;DHT22;6492;48.128;8.320;2023-02-21T04:20:26;1.10;21.70
12847;DHT22;6492;48.128;8.320;2023-02-21T04:24:28;1.00;21.80
12847;DHT22;6492;48.128;8.320;2023-02-21T04:28:29;0.90;22.10
12847;DHT22;6492;48.128;8.320;2023-02-21T04:32:32;0.80;22.10
12847;DHT22;6492;48.128;8.320;2023-02-21T04:36:34;0.80;22.20
12847;DHT22;6492;48.128;8.320;2023-02-21T04:40:37;0.70;22.40
12847;DHT22;6492;48.128;8.320;2023-02-21T04:44:39;0.70;23.20
12847;DHT22;6492;48.128;8.320;2023-02-21T04:48:42;0.60;24.20
12847;DHT22;6492;48.128;8.320;2023-02-21T04:52:46;0.70;24.90
12847;DHT22;6492;48.128;8.320;2023-02-21T04:56:48;0.80;24.30
12847;DHT22;6492;48.128;8.320;2023-02-21T05:00:50;1.00;22.70
12847;DHT22;6492;48.128;8.320;2023-02-21T05:04:53;1.10;19.70
12847;DHT22;6492;48.128;8.320;2023-02-21T05:08:55;1.20;17.50
12847;DHT22;6492;48.128;8.320;2023-02-21T05:12:57;1.10;17.40
12847;DHT22;6492;48.128;8.320;2023-02-21T05:16:59;1.00;17.30
12847;DHT22;6492;48.128;8.320;2023-02-21T05:21:02;0.90;17.60
12847;DHT22;6492;48.128;8.320;2023-02-21T05:25:05;0.90;17.60
12847;DHT22;6492;48.128;8.320;2023-02-21T05:29:07;0.90;17.50
12847;DHT22;6492;48.128;8.320;2023-02-21T05:33:08;1.00;17.30
12847;DHT22;6492;48.128;8.320;2023-02-21T05:37:12;1.00;17.50
12847;DHT22;6492;48.128;8.320;2023-02-21T05:41:14;1.00;17.70
12847;DHT22;6492;48.128;8.320;2023-02-21T05:45:16;1.00;19.00
12847;DHT22;6492;48.128;8.320;2023-02-21T05:49:18;1.10;18.90
12847;DHT22;6492;48.128;8.320;2023-02-21T05:53:21;1.10;18.60
12847;DHT22;6492;48.128;8.320;2023-02-21T05:57:24;1.10;18.00
12847;DHT22;6492;48.128;8.320;2023-02-21T06:01:25;1.10;17.40
12847;DHT22;6492;48.128;8.320;2023-02-21T06:05:27;1.10;17.10
12847;DHT22;6492;48.128;8.320;2023-02-21T06:09:30;1.10;16.40
12847;DHT22;6492;48.128;8.320;2023-02-21T06:13:32;1.10;16.50
12847;DHT22;6492;48.128;8.320;2023-02-21T06:17:35;1.10;15.60
12847;DHT22;6492;48.128;8.320;2023-02-21T06:21:38;1.20;14.50
12847;DHT22;6492;48.128;8.320;2023-02-21T06:25:42;1.20;14.70
12847;DHT22;6492;48.128;8.320;2023-02-21T06:29:44;1.30;13.60
12847;DHT22;6492;48.128;8.320;2023-02-21T06:33:47;1.30;14.20
12847;DHT22;6492;48.128;8.320;2023-02-21T06:38:16;1.40;13.50
12847;DHT22;6492;48.128;8.320;2023-02-21T06:42:19;1.40;13.60
12847;DHT22;6492;48.128;8.320;2023-02-21T06:46:24;1.60;10.10
12847;DHT22;6492;48.128;8.320;2023-02-21T06:50:26;1.80;8.50
12847;DHT22;6492;48.128;8.320;2023-02-21T06:54:28;2.00;7.70
12847;DHT22;6492;48.128;8.320;2023-02-21T06:58:31;2.10;8.00
12847;DHT22;6492;48.128;8.320;2023-02-21T07:02:33;2.10;6.80
12847;DHT22;6492;48.128;8.320;2023-02-21T07:06:35;2.20;5.60
12847;DHT22;6492;48.128;8.320;2023-02-21T07:10:37;2.40;5.60
12847;DHT22;6492;48.128;8.320;2023-02-21T07:14:40;2.50;5.90
12847;DHT22;6492;48.128;8.320;2023-02-21T07:18:47;2.50;5.50
12847;DHT22;6492;48.128;8.320;2023-02-21T07:22:53;2.60;5.00
12847;DHT22;6492;48.128;8.320;2023-02-21T07:26:55;2.70;5.20
12847;DHT22;6492;48.128;8.320;2023-02-21T07:31:05;2.80;5.10
12847;DHT22;6492;48.128;8.320;2023-02-21T07:35:08;2.90;5.50
12847;DHT22;6492;48.128;8.320;2023-02-21T07:39:10;2.80;6.00
12847;DHT22;6492;48.128;8.320;2023-02-21T07:43:14;3.00;4.60
12847;DHT22;6492;48.128;8.320;2023-02-21T07:47:17;3.10;5.20
12847;DHT22;6492;48.128;8.320;2023-02-21T07:51:19;3.20;5.20
12847;DHT22;6492;48.128;8.320;2023-02-21T07:55:23;3.30;4.70
12847;DHT22;6492;48.128;8.320;2023-02-21T07:59:25;3.50;4.30
12847;DHT22;6492;48.128;8.320;2023-02-21T08:03:54;3.60;4.50
12847;DHT22;6492;48.128;8.320;2023-02-21T08:07:56;3.80;4.10
12847;DHT22;6492;48.128;8.320;2023-02-21T08:12:16;4.00;3.60
12847;DHT22;6492;48.128;8.320;2023-02-21T08:16:18;4.20;3.10
12847;DHT22;6492;48.128;8.320;2023-02-21T08:20:21;4.50;2.90
12847;DHT22;6492;48.128;8.320;2023-02-21T08:24:28;4.80;2.40
12847;DHT22;6492;48.128;8.320;2023-02-21T08:28:33;5.20;2.70
12847;DHT22;6492;48.128;8.320;2023-02-21T08:32:37;5.50;2.20
12847;DHT22;6492;48.128;8.320;2023-02-21T08:36:45;5.70;3.10
12847;DHT22;6492;48.128;8.320;2023-02-21T08:40:47;6.00;2.20
12847;DHT22;6492;48.128;8.320;2023-02-21T08:44:50;6.20;1.00
12847;DHT22;6492;48.128;8.320;2023-02-21T08:48:52;6.40;1.00
12847;DHT22;6492;48.128;8.320;2023-02-21T08:52:56;6.70;1.40
12847;DHT22;6492;48.128;8.320;2023-02-21T08:56:59;7.10;1.00
12847;DHT22;6492;48.128;8.320;2023-02-21T09:01:01;7.30;1.00
12847;DHT22;6492;48.128;8.320;2023-02-21T09:05:08;7.60;1.00
12847;DHT22;6492;48.128;8.320;2023-02-21T09:09:21;7.90;1.00
12847;DHT22;6492;48.128;8.320;2023-02-21T09:13:35;8.10;1.00
12847;DHT22;6492;48.128;8.320;2023-02-21T09:17:37;8.40;1.00
12847;DHT22;6492;48.128;8.320;2023-02-21T09:21:44;8.60;1.00
12847;DHT22;6492;48.128;8.320;2023-02-21T09:25:49;8.90;1.00
12847;DHT22;6492;48.128;8.320;2023-02-21T09:29:58;9.20;1.00
12847;DHT22;6492;48.128;8.320;2023-02-21T09:34:00;9.70;1.00
12847;DHT22;6492;48.128;8.320;2023-02-21T09:38:06;10.10;1.00
12847;DHT22;6492;48.128;8.320;2023-02-21T09:42:14;10.60;1.00
12847;DHT22;6492;48.128;8.320;2023-02-21T09:46:31;11.10;1.00
12847;DHT22;6492;48.128;8.320;2023-02-21T09:50:40;11.60;1.00
12847;DHT22;6492;48.128;8.320;2023-02-21T09:54:46;12.10;1.00
12847;DHT22;6492;48.128;8.320;2023-02-21T09:58:54;12.70;1.00
12847;DHT22;6492;48.128;8.320;2023-02-21T10:03:15;13.10;1.00
12847;DHT22;6492;48.128;8.320;2023-02-21T10:07:28;13.50;1.00
12847;DHT22;6492;48.128;8.320;2023-02-21T10:11:46;13.90;1.00
12847;DHT22;6492;48.128;8.320;2023-02-21T10:16:13;14.40;1.00
12847;DHT22;6492;48.128;8.320;2023-02-21T10:20:26;14.90;1.00
12847;DHT22;6492;48.128;8.320;2023-02-21T10:24:30;15.00;1.00
12847;DHT22;6492;48.128;8.320;2023-02-21T10:28:32;15.30;1.00
12847;DHT22;6492;48.128;8.320;2023-02-21T10:32:38;15.60;1.00
12847;DHT22;6492;48.128;8.320;2023-02-21T10:36:39;16.00;1.00
12847;DHT22;6492;48.128;8.320;2023-02-21T10:40:43;16.50;1.00
12847;DHT22;6492;48.128;8.320;2023-02-21T10:44:45;16.90;1.00
12847;DHT22;6492;48.128;8.320;2023-02-21T10:48:51;17.30;1.00
12847;DHT22;6492;48.128;8.320;2023-02-21T10:52:53;17.60;1.00
12847;DHT22;6492;48.128;8.320;2023-02-21T10:56:55;18.00;1.00
12847;DHT22;6492;48.128;8.320;2023-02-21T11:01:12;18.30;1.00
12847;DHT22;6492;48.128;8.320;2023-02-21T11:05:18;18.60;1.00
12847;DHT22;6492;48.128;8.320;2023-02-21T11:09:37;19.00;1.00
12847;DHT22;6492;48.128;8.320;2023-02-21T11:13:39;19.30;1.00
12847;DHT22;6492;48.128;8.320;2023-02-21T11:17:42;19.60;1.00
12847;DHT22;6492;48.128;8.320;2023-02-21T11:21:54;20.10;1.00
12847;DHT22;6492;48.128;8.320;2023-02-21T11:25:59;20.30;1.00
12847;DHT22;6492;48.128;8.320;2023-02-21T11:30:14;20.40;1.00
12847;DHT22;6492;48.128;8.320;2023-02-21T11:34:17;20.40;1.00
12847;DHT22;6492;48.128;8.320;2023-02-21T11:38:32;19.90;1.00
12847;DHT22;6492;48.128;8.320;2023-02-21T11:42:35;19.70;1.00
12847;DHT22;6492;48.128;8.320;2023-02-21T11:46:41;19.80;1.00
12847;DHT22;6492;48.128;8.320;2023-02-21T11:50:49;19.90;1.00
12847;DHT22;6492;48.128;8.320;2023-02-21T11:54:53;20.40;1.00
12847;DHT22;6492;48.128;8.320;2023-02-21T11:59:02;20.50;1.00
12847;DHT22;6492;48.128;8.320;2023-02-21T12:08:01;20.20;1.00
12847;DHT22;6492;48.128;8.320;2023-02-21T12:12:15;19.90;1.00
12847;DHT22;6492;48.128;8.320;2023-02-21T12:16:29;19.40;1.00
12847;DHT22;6492;48.128;8.320;2023-02-21T12:20:47;19.70;1.00
12847;DHT22;6492;48.128;8.320;2023-02-21T12:25:02;20.30;1.00
12847;DHT22;6492;48.128;8.320;2023-02-21T12:29:20;20.60;1.00
12847;DHT22;6492;48.128;8.320;2023-02-21T12:33:33;20.90;1.00
12847;DHT22;6492;48.128;8.320;2023-02-21T12:37:40;20.90;1.00
12847;DHT22;6492;48.128;8.320;2023-02-21T12:42:01;20.40;1.00
12847;DHT22;6492;48.128;8.320;2023-02-21T12:46:18;20.40;1.00
12847;DHT22;6492;48.128;8.320;2023-02-21T12:50:24;20.60;1.00
12847;DHT22;6492;48.128;8.320;2023-02-21T12:54:35;20.70;1.00
12847;DHT22;6492;48.128;8.320;2023-02-21T12:58:51;20.00;1.00
12847;DHT22;6492;48.128;8.320;2023-02-21T13:03:10;19.80;1.00
12847;DHT22;6492;48.128;8.320;2023-02-21T13:07:21;20.30;1.00
12847;DHT22;6492;48.128;8.320;2023-02-21T13:11:30;20.80;1.00
12847;DHT22;6492;48.128;8.320;2023-02-21T13:15:34;21.20;1.00
12847;DHT22;6492;48.128;8.320;2023-02-21T13:19:41;21.20;1.00
12847;DHT22;6492;48.128;8.320;2023-02-21T13:23:48;21.30;1.00
12847;DHT22;6492;48.128;8.320;2023-02-21T13:27:55;21.10;1.00
12847;DHT22;6492;48.128;8.320;2023-02-21T13:31:59;21.10;1.00
12847;DHT22;6492;48.128;8.320;2023-02-21T13:36:17;21.30;1.00
12847;DHT22;6492;48.128;8.320;2023-02-21T13:40:34;21.40;1.00
12847;DHT22;6492;48.128;8.320;2023-02-21T13:44:38;21.50;1.00
12847;DHT22;6492;48.128;8.320;2023-02-21T13:48:41;21.40;1.00
12847;DHT22;6492;48.128;8.320;2023-02-21T13:53:02;21.00;1.00
12847;DHT22;6492;48.128;8.320;2023-02-21T13:57:28;20.80;1.00
12847;DHT22;6492;48.128;8.320;2023-02-21T14:01:48;20.80;1.00
12847;DHT22;6492;48.128;8.320;2023-02-21T14:06:27;21.00;1.00
12847;DHT22;6492;48.128;8.320;2023-02-21T14:10:37;20.80;1.00
12847;DHT22;6492;48.128;8.320;2023-02-21T14:14:40;20.70;1.00
12847;DHT22;6492;48.128;8.320;2023-02-21T14:18:45;20.40;1.00
12847;DHT22;6492;48.128;8.320;2023-02-21T14:22:53;20.20;1.00
12847;DHT22;6492;48.128;8.320;2023-02-21T14:27:03;19.80;1.00
12847;DHT22;6492;48.128;8.320;2023-02-21T14:31:13;19.80;1.00
12847;DHT22;6492;48.128;8.320;2023-02-21T14:35:23;19.80;1.00
12847;DHT22;6492;48.128;8.320;2023-02-21T14:39:32;20.00;1.00
12847;DHT22;6492;48.128;8.320;2023-02-21T14:44:01;20.00;1.00
12847;DHT22;6492;48.128;8.320;2023-02-21T14:48:29;20.10;1.00
12847;DHT22;6492;48.128;8.320;2023-02-21T14:53:12;20.00;1.00
12847;DHT22;6492;48.128;8.320;2023-02-21T14:57:37;19.90;1.00
12847;DHT22;6492;48.128;8.320;2023-02-21T15:01:55;19.80;1.00
12847;DHT22;6492;48.128;8.320;2023-02-21T15:06:02;19.80;1.00
12847;DHT22;6492;48.128;8.320;2023-02-21T15:10:20;19.80;1.00
12847;DHT22;6492;48.128;8.320;2023-02-21T15:14:24;19.60;1.00
12847;DHT22;6492;48.128;8.320;2023-02-21T15:18:30;19.30;1.00
12847;DHT22;6492;48.128;8.320;2023-02-21T15:22:32;19.20;1.00
12847;DHT22;6492;48.128;8.320;2023-02-21T15:26:34;19.00;1.00
12847;DHT22;6492;48.128;8.320;2023-02-21T15:30:38;18.80;1.00
12847;DHT22;6492;48.128;8.320;2023-02-21T15:34:42;18.70;1.00
12847;DHT22;6492;48.128;8.320;2023-02-21T15:38:47;18.50;1.00
12847;DHT22;6492;48.128;8.320;2023-02-21T15:42:58;18.30;1.00
12847;DHT22;6492;48.128;8.320;2023-02-21T15:47:06;17.90;1.00
12847;DHT22;6492;48.128;8.320;2023-02-21T15:51:10;17.30;1.00
12847;DHT22;6492;48.128;8.320;2023-02-21T15:55:27;16.60;1.00
12847;DHT22;6492;48.128;8.320;2023-02-21T15:59:36;15.90;1.00
12847;DHT22;6492;48.128;8.320;2023-02-21T16:03:41;15.30;1.00
12847;DHT22;6492;48.128;8.320;2023-02-21T16:07:44;14.70;1.00
12847;DHT22;6492;48.128;8.320;2023-02-21T16:11:53;14.20;1.00
12847;DHT22;6492;48.128;8.320;2023-02-21T16:16:04;13.80;1.00
12847;DHT22;6492;48.128;8.320;2023-02-21T16:20:15;13.30;1.00
12847;DHT22;6492;48.128;8.320;2023-02-21T16:24:30;12.80;1.00
12847;DHT22;6492;48.128;8.320;2023-02-21T16:28:33;12.30;1.00
12847;DHT22;6492;48.128;8.320;2023-02-21T16:32:37;12.00;1.00
12847;DHT22;6492;48.128;8.320;2023-02-21T16:36:39;11.80;1.00
12847;DHT22;6492;48.128;8.320;2023-02-21T16:40:43;11.50;1.00
12847;DHT22;6492;48.128;8.320;2023-02-21T16:44:45;11.30;1.00
12847;DHT22;6492;48.128;8.320;2023-02-21T16:48:47;11.10;1.00
12847;DHT22;6492;48.128;8.320;2023-02-21T16:52:49;10.80;1.00
12847;DHT22;6492;48.128;8.320;2023-02-21T16:56:54;10.50;1.00
12847;DHT22;6492;48.128;8.320;2023-02-21T17:00:59;10.20;1.00
12847;DHT22;6492;48.128;8.320;2023-02-21T17:05:01;9.80;1.00
12847;DHT22;6492;48.128;8.320;2023-02-21T17:09:03;9.60;1.00
12847;DHT22;6492;48.128;8.320;2023-02-21T17:13:16;9.20;1.00
12847;DHT22;6492;48.128;8.320;2023-02-21T17:17:23;8.80;1.00
12847;DHT22;6492;48.128;8.320;2023-02-21T17:21:25;8.50;1.00
12847;DHT22;6492;48.128;8.320;2023-02-21T17:25:27;8.30;1.00
12847;DHT22;6492;48.128;8.320;2023-02-21T17:29:30;8.10;1.50
12847;DHT22;6492;48.128;8.320;2023-02-21T17:33:37;7.80;1.20
12847;DHT22;6492;48.128;8.320;2023-02-21T17:37:41;7.50;1.70
12847;DHT22;6492;48.128;8.320;2023-02-21T17:41:46;7.30;3.20
12847;DHT22;6492;48.128;8.320;2023-02-21T17:45:50;7.00;4.00
12847;DHT22;6492;48.128;8.320;2023-02-21T17:49:52;6.80;5.10
12847;DHT22;6492;48.128;8.320;2023-02-21T17:53:54;6.60;5.60
12847;DHT22;6492;48.128;8.320;2023-02-21T17:57:58;6.50;6.40
12847;DHT22;6492;48.128;8.320;2023-02-21T18:02:11;6.40;6.00
12847;DHT22;6492;48.128;8.320;2023-02-21T18:06:15;6.20;6.40
12847;DHT22;6492;48.128;8.320;2023-02-21T18:10:19;6.10;6.70
12847;DHT22;6492;48.128;8.320;2023-02-21T18:14:27;6.00;7.20
12847;DHT22;6492;48.128;8.320;2023-02-21T18:18:37;5.80;9.10
12847;DHT22;6492;48.128;8.320;2023-02-21T18:22:47;5.80;9.80
12847;DHT22;6492;48.128;8.320;2023-02-21T18:26:54;5.80;9.90
12847;DHT22;6492;48.128;8.320;2023-02-21T18:31:05;5.70;9.00
12847;DHT22;6492;48.128;8.320;2023-02-21T18:35:08;5.60;8.80
12847;DHT22;6492;48.128;8.320;2023-02-21T18:39:10;5.50;10.20
12847;DHT22;6492;48.128;8.320;2023-02-21T18:43:17;5.40;9.70
12847;DHT22;6492;48.128;8.320;2023-02-21T18:47:30;5.30;10.60
12847;DHT22;6492;48.128;8.320;2023-02-21T18:51:36;5.30;11.70
12847;DHT22;6492;48.128;8.320;2023-02-21T18:55:37;5.30;11.30
12847;DHT22;6492;48.128;8.320;2023-02-21T18:59:45;5.20;11.20
12847;DHT22;6492;48.128;8.320;2023-02-21T19:03:49;5.00;12.90
12847;DHT22;6492;48.128;8.320;2023-02-21T19:07:52;5.00;12.80
12847;DHT22;6492;48.128;8.320;2023-02-21T19:11:54;5.00;13.10
12847;DHT22;6492;48.128;8.320;2023-02-21T19:15:56;5.00;13.60
12847;DHT22;6492;48.128;8.320;2023-02-21T19:20:00;4.90;14.60
12847;DHT22;6492;48.128;8.320;2023-02-21T19:24:03;4.90;14.70
12847;DHT22;6492;48.128;8.320;2023-02-21T19:28:12;4.80;16.00
12847;DHT22;6492;48.128;8.320;2023-02-21T19:32:14;4.90;16.40
12847;DHT22;6492;48.128;8.320;2023-02-21T19:36:21;4.90;17.10
12847;DHT22;6492;48.128;8.320;2023-02-21T19:40:24;4.80;16.80
12847;DHT22;6492;48.128;8.320;2023-02-21T19:44:34;4.70;18.10
12847;DHT22;6492;48.128;8.320;2023-02-21T19:48:36;4.60;18.70
12847;DHT22;6492;48.128;8.320;2023-02-21T19:52:38;4.60;19.80
12847;DHT22;6492;48.128;8.320;2023-02-21T19:56:42;4.50;19.00
12847;DHT22;6492;48.128;8.320;2023-02-21T20:00:46;4.40;18.40
12847;DHT22;6492;48.128;8.320;2023-02-21T20:04:49;4.20;18.30
12847;DHT22;6492;48.128;8.320;2023-02-21T20:08:52;4.00;18.60
12847;DHT22;6492;48.128;8.320;2023-02-21T20:13:02;3.90;20.20
12847;DHT22;6492;48.128;8.320;2023-02-21T20:17:12;3.80;22.40
12847;DHT22;6492;48.128;8.320;2023-02-21T20:21:17;3.70;22.40
12847;DHT22;6492;48.128;8.320;2023-02-21T20:25:19;3.70;23.70
12847;DHT22;6492;48.128;8.320;2023-02-21T20:29:24;3.80;24.60
12847;DHT22;6492;48.128;8.320;2023-02-21T20:33:26;4.00;22.50
12847;DHT22;6492;48.128;8.320;2023-02-21T20:37:32;4.10;21.20
12847;DHT22;6492;48.128;8.320;2023-02-21T20:41:36;4.00;20.70
12847;DHT22;6492;48.128;8.320;2023-02-21T20:45:40;3.80;20.70
12847;DHT22;6492;48.128;8.320;2023-02-21T20:49:44;3.70;21.00
12847;DHT22;6492;48.128;8.320;2023-02-21T20:53:47;3.60;20.80
12847;DHT22;6492;48.128;8.320;2023-02-21T20:57:50;3.50;21.20
12847;DHT22;6492;48.128;8.320;2023-02-21T21:01:53;3.40;21.90
12847;DHT22;6492;48.128;8.320;2023-02-21T21:05:55;3.40;22.40
12847;DHT22;6492;48.128;8.320;2023-02-21T21:10:18;3.50;21.00
12847;DHT22;6492;48.128;8.320;2023-02-21T21:14:31;3.60;19.60
12847;DHT22;6492;48.128;8.320;2023-02-21T21:18:35;3.40;19.70
12847;DHT22;6492;48.128;8.320;2023-02-21T21:27:02;3.20;21.30
12847;DHT22;6492;48.128;8.320;2023-02-21T21:31:22;3.40;21.10
12847;DHT22;6492;48.128;8.320;2023-02-21T21:35:43;3.40;20.00
12847;DHT22;6492;48.128;8.320;2023-02-21T21:39:58;3.90;20.60
12847;DHT22;6492;48.128;8.320;2023-02-21T21:44:50;3.20;19.50
12847;DHT22;6492;48.128;8.320;2023-02-21T21:48:53;3.00;19.60
12847;DHT22;6492;48.128;8.320;2023-02-21T21:52:56;3.00;19.70
12847;DHT22;6492;48.128;8.320;2023-02-21T21:56:59;2.90;20.20
12847;DHT22;6492;48.128;8.320;2023-02-21T22:01:03;2.90;19.90
12847;DHT22;6492;48.128;8.320;2023-02-21T22:05:05;2.80;20.00
12847;DHT22;6492;48.128;8.320;2023-02-21T22:09:10;2.70;19.70
12847;DHT22;6492;48.128;8.320;2023-02-21T22:13:14;2.70;20.00
12847;DHT22;6492;48.128;8.320;2023-02-21T22:17:19;2.70;19.50
12847;DHT22;6492;48.128;8.320;2023-02-21T22:21:21;2.80;19.20
12847;DHT22;6492;48.128;8.320;2023-02-21T22:25:26;2.80;18.30
12847;DHT22;6492;48.128;8.320;2023-02-21T22:29:29;2.70;18.20
12847;DHT22;6492;48.128;8.320;2023-02-21T22:33:31;2.60;18.50
12847;DHT22;6492;48.128;8.320;2023-02-21T22:37:33;2.50;18.60
12847;DHT22;6492;48.128;8.320;2023-02-21T22:41:36;2.50;18.70
12847;DHT22;6492;48.128;8.320;2023-02-21T22:45:39;2.40;18.90
12847;DHT22;6492;48.128;8.320;2023-02-21T22:49:43;2.60;19.00
12847;DHT22;6492;48.128;8.320;2023-02-21T22:53:46;2.80;18.40
12847;DHT22;6492;48.128;8.320;2023-02-21T22:57:52;2.90;17.90
12847;DHT22;6492;48.128;8.320;2023-02-21T23:01:55;2.80;18.20
12847;DHT22;6492;48.128;8.320;2023-02-21T23:05:57;2.60;19.00
12847;DHT22;6492;48.128;8.320;2023-02-21T23:10:01;2.50;19.10
12847;DHT22;6492;48.128;8.320;2023-02-21T23:14:04;2.40;19.30
12847;DHT22;6492;48.128;8.320;2023-02-21T23:18:18;2.30;19.30
12847;DHT22;6492;48.128;8.320;2023-02-21T23:22:20;2.10;20.20
12847;DHT22;6492;48.128;8.320;2023-02-21T23:26:25;2.00;20.10
12847;DHT22;6492;48.128;8.320;2023-02-21T23:30:28;1.90;20.70
12847;DHT22;6492;48.128;8.320;2023-02-21T23:34:35;1.80;20.90
12847;DHT22;6492;48.128;8.320;2023-02-21T23:38:40;1.70;22.90
12847;DHT22;6492;48.128;8.320;2023-02-21T23:42:43;1.70;23.40
12847;DHT22;6492;48.128;8.320;2023-02-21T23:46:46;1.60;23.60
12847;DHT22;6492;48.128;8.320;2023-02-21T23:50:49;1.50;24.60
12847;DHT22;6492;48.128;8.320;2023-02-21T23:54:51;1.50;25.40
12847;DHT22;6492;48.128;8.320;2023-02-21T23:58:54;1.50;25.80
